Time;durP1;ratioP1;P1;durP2;ratioP2;P2;SDS_P1;SDS_P2;PMS_P1;PMS_P2;Temp;Humidity;BMP_temperature;BMP_pressure;BME280_temperature;BME280_humidity;BME280_pressure;Samples;Min_cycle;Max_cycle;Signal;HPM_P1;HPM_P2
2022/02/09 02:39:36;;;;;;;11.10;4.43;;;;;;;;;;6275798;22;20294;-92
2022/02/09 02:43:31;;;;;;;10.40;4.13;;;;;;;;;;6355928;22;20219;-92
2022/02/09 02:57:07;;;;;;;11.37;4.97;;;;;;;;;;6338067;22;20165;-92
2022/02/09 03:10:48;;;;;;;15.60;5.07;;;;;;;;;;6340118;22;20183;-90
2022/02/09 03:14:07;;;;;;;10.57;4.17;;;;;;;;;;6356687;22;20187;-91
2022/02/09 03:17:17;;;;;;;10.13;4.90;;;;;;;;;;6357795;22;20216;-92
2022/02/09 03:20:30;;;;;;;13.17;5.63;;;;;;;;;;6357119;22;20262;-92
2022/02/09 03:23:55;;;;;;;10.50;4.70;;;;;;;;;;6339858;22;20148;-90
2022/02/09 03:27:22;;;;;;;12.43;4.37;;;;;;;;;;6357495;22;20155;-92
2022/02/09 03:44:26;;;;;;;9.60;3.10;;;;;;;;;;6339423;22;20168;-91
2022/02/09 03:47:44;;;;;;;6.00;2.90;;;;;;;;;;6337798;22;20148;-93
2022/02/09 03:51:13;;;;;;;9.73;2.70;;;;;;;;;;6357407;22;20191;-92
2022/02/09 03:54:28;;;;;;;6.83;2.50;;;;;;;;;;6355277;22;20192;-93
2022/02/09 03:57:44;;;;;;;6.33;2.70;;;;;;;;;;6356353;22;20294;-91
2022/02/09 04:00:51;;;;;;;4.97;2.27;;;;;;;;;;6357494;22;20164;-91
2022/02/09 04:03:59;;;;;;;6.93;2.40;;;;;;;;;;6355986;22;20171;-91
2022/02/09 04:07:07;;;;;;;5.90;2.67;;;;;;;;;;6357164;22;20176;-90
2022/02/09 04:10:18;;;;;;;6.03;2.47;;;;;;;;;;6358707;22;20187;-93
2022/02/09 04:13:33;;;;;;;8.30;2.93;;;;;;;;;;6359351;22;20283;-92
2022/02/09 04:16:56;;;;;;;5.17;2.00;;;;;;;;;;6359029;22;20195;-92
2022/02/09 04:20:24;;;;;;;5.60;2.23;;;;;;;;;;6358344;22;20164;-91
2022/02/09 04:37:11;;;;;;;5.10;2.00;;;;;;;;;;6338283;22;20180;-92
2022/02/09 04:40:35;;;;;;;6.87;2.47;;;;;;;;;;6339987;22;20167;-92
2022/02/09 04:43:54;;;;;;;9.07;2.87;;;;;;;;;;6337664;22;20191;-93
2022/02/09 04:50:29;;;;;;;7.83;3.40;;;;;;;;;;6338848;22;20168;-92
2022/02/09 04:57:01;;;;;;;8.20;3.87;;;;;;;;;;6336626;22;20189;-92
2022/02/09 05:00:21;;;;;;;7.53;3.97;;;;;;;;;;6356567;22;20168;-92
2022/02/09 05:03:48;;;;;;;9.97;3.47;;;;;;;;;;6355335;22;20161;-92
2022/02/09 05:24:12;;;;;;;10.60;3.67;;;;;;;;;;6244724;22;20220;-93
2022/02/09 05:27:33;;;;;;;10.27;3.63;;;;;;;;;;6355293;22;20149;-92
2022/02/09 05:30:39;;;;;;;9.57;3.50;;;;;;;;;;6320761;22;20180;-91
2022/02/09 05:33:48;;;;;;;9.20;3.77;;;;;;;;;;6358534;22;20168;-90
2022/02/09 05:36:53;;;;;;;8.77;4.00;;;;;;;;;;6357947;22;20196;-91
2022/02/09 05:40:00;;;;;;;6.83;3.70;;;;;;;;;;6339994;22;20187;-92
2022/02/09 05:43:07;;;;;;;9.33;3.50;;;;;;;;;;6340432;22;20191;-91
2022/02/09 05:46:52;;;;;;;10.37;3.30;;;;;;;;;;6359161;22;20172;-91
2022/02/09 05:50:00;;;;;;;9.07;2.90;;;;;;;;;;6356734;22;20305;-91
2022/02/09 05:53:11;;;;;;;9.47;3.50;;;;;;;;;;6355592;22;20244;-92
2022/02/09 05:56:33;;;;;;;10.77;3.53;;;;;;;;;;6356265;22;20242;-90
2022/02/09 05:59:38;;;;;;;11.93;3.53;;;;;;;;;;6338401;22;20207;-90
2022/02/09 06:02:43;;;;;;;8.73;3.80;;;;;;;;;;6340385;22;20192;-90
2022/02/09 06:05:48;;;;;;;9.27;3.50;;;;;;;;;;6354963;22;20337;-90
2022/02/09 06:08:56;;;;;;;5.23;2.97;;;;;;;;;;6355799;22;20221;-92
2022/02/09 06:12:10;;;;;;;7.77;3.43;;;;;;;;;;6355128;22;20160;-90
2022/02/09 06:15:35;;;;;;;10.50;4.10;;;;;;;;;;6341000;22;20184;-92
2022/02/09 06:22:06;;;;;;;10.20;3.40;;;;;;;;;;6342269;22;20232;-92
2022/02/09 06:25:12;;;;;;;10.40;3.47;;;;;;;;;;6361399;22;20168;-92
2022/02/09 06:28:21;;;;;;;9.90;3.00;;;;;;;;;;6339739;22;20160;-91
2022/02/09 06:31:31;;;;;;;13.20;3.47;;;;;;;;;;6341783;22;20153;-91
2022/02/09 06:34:44;;;;;;;10.67;3.50;;;;;;;;;;6357682;22;20194;-91
2022/02/09 06:37:54;;;;;;;7.70;3.40;;;;;;;;;;6359358;22;20156;-91
2022/02/09 06:44:21;;;;;;;11.27;4.17;;;;;;;;;;6337793;22;20168;-91
2022/02/09 06:47:29;;;;;;;13.60;4.23;;;;;;;;;;6357118;22;20230;-92
2022/02/09 06:50:38;;;;;;;7.87;3.80;;;;;;;;;;6358704;22;20214;-91
2022/02/09 06:53:48;;;;;;;10.30;4.00;;;;;;;;;;6356497;22;20167;-91
2022/02/09 06:57:10;;;;;;;12.10;3.87;;;;;;;;;;6341169;22;20162;-93
2022/02/09 07:00:20;;;;;;;11.03;3.87;;;;;;;;;;6357413;22;20684;-91
2022/02/09 07:03:27;;;;;;;9.70;3.57;;;;;;;;;;6358070;22;20586;-91
2022/02/09 07:06:32;;;;;;;11.43;3.57;;;;;;;;;;6357487;22;20243;-92
2022/02/09 07:09:37;;;;;;;8.17;3.00;;;;;;;;;;6339790;22;20240;-91
2022/02/09 07:12:43;;;;;;;11.90;3.23;;;;;;;;;;6358671;22;20168;-91
2022/02/09 07:16:03;;;;;;;7.17;2.90;;;;;;;;;;6357598;22;20640;-91
